Time;durP1;ratioP1;P1;durP2;ratioP2;P2;SDS_P1;SDS_P2;PMS_P1;PMS_P2;Temp;Humidity;BMP_temperature;BMP_pressure;BME280_temperature;BME280_humidity;BME280_pressure;Samples;Min_cycle;Max_cycle;Signal;HPM_P1;HPM_P2
2022/04/03 00:01:29;;;;;;;2.57;1.80;;;;;;;-4.89;88.18;101171.41;5057755;22;20036;-76
2022/04/03 00:03:56;;;;;;;4.07;1.83;;;;;;;-4.88;88.01;101168.03;5025515;28;20060;-76
2022/04/03 00:06:23;;;;;;;2.60;1.53;;;;;;;-4.87;88.31;101168.13;4997760;28;20045;-75
2022/04/03 00:08:50;;;;;;;4.70;2.43;;;;;;;-4.89;88.88;101174.88;5009968;28;20037;-75
2022/04/03 00:11:16;;;;;;;3.47;2.03;;;;;;;-4.93;89.22;101169.50;5027325;28;20045;-75
2022/04/03 00:13:54;;;;;;;2.97;1.57;;;;;;;-4.87;89.39;101177.56;5029946;28;20118;-75
2022/04/03 00:20:23;;;;;;;2.63;1.80;;;;;;;-4.63;90.23;101165.84;5038767;28;20044;-77
2022/04/03 00:23:12;;;;;;;5.30;2.20;;;;;;;-4.53;90.06;101168.06;5032247;28;20405;-77
2022/04/03 00:25:43;;;;;;;4.17;2.50;;;;;;;-4.55;90.06;101168.78;5035622;28;21603;-77
2022/04/03 00:28:10;;;;;;;4.20;2.17;;;;;;;-4.50;90.11;101162.16;5031589;28;20041;-77
2022/04/03 00:30:41;;;;;;;3.50;1.80;;;;;;;-4.42;90.42;101162.53;5030718;28;20123;-78
2022/04/03 00:33:09;;;;;;;4.00;2.03;;;;;;;-4.34;89.91;101156.06;5027600;28;20037;-78
2022/04/03 00:35:35;;;;;;;4.07;2.23;;;;;;;-4.26;90.16;101159.88;5025527;28;20041;-76
2022/04/03 00:38:03;;;;;;;3.23;2.33;;;;;;;-4.22;90.00;101154.03;5010618;28;20719;-77
2022/04/03 00:40:30;;;;;;;4.40;2.60;;;;;;;-4.10;90.42;101154.63;5023671;28;20417;-77
2022/04/03 00:43:02;;;;;;;5.37;2.30;;;;;;;-4.08;90.82;101155.56;5028404;28;20679;-77
2022/04/03 00:45:46;;;;;;;4.77;2.00;;;;;;;-3.99;90.82;101155.97;5013770;28;20132;-78
2022/04/03 00:48:28;;;;;;;4.63;2.00;;;;;;;-3.98;91.15;101149.13;4998160;28;20045;-77
2022/04/03 00:51:18;;;;;;;4.83;2.47;;;;;;;-3.86;90.02;101149.69;5019482;28;20032;-77
2022/04/03 00:54:01;;;;;;;3.77;2.37;;;;;;;-3.65;89.99;101154.03;5016267;28;20733;-75
2022/04/03 01:01:07;;;;;;;6.10;2.57;;;;;;;-3.67;91.07;101153.97;5044172;28;20059;-78
2022/04/03 01:04:21;;;;;;;4.60;2.80;;;;;;;-3.64;91.32;101148.06;5045006;28;20191;-77
2022/04/03 01:15:35;;;;;;;3.67;2.28;;;;;;;-3.54;91.96;101135.59;5045921;28;20045;-77
2022/04/03 01:19:37;;;;;;;3.20;2.20;;;;;;;-3.48;92.48;101129.84;5031448;28;20126;-78
2022/04/03 01:23:34;;;;;;;6.27;2.47;;;;;;;-3.37;92.51;101132.88;4994738;28;20048;-77
2022/04/03 01:26:48;;;;;;;3.63;2.40;;;;;;;-3.32;92.62;101129.69;4988200;28;20054;-78
2022/04/03 01:29:18;;;;;;;5.47;2.27;;;;;;;-3.26;93.29;101126.50;4998524;28;20052;-77
2022/04/03 01:31:46;;;;;;;5.20;2.80;;;;;;;-3.27;92.91;101129.91;5012903;28;20045;-77
2022/04/03 01:34:14;;;;;;;3.63;2.20;;;;;;;-3.29;93.23;101124.63;5044165;28;20379;-77
2022/04/03 01:36:41;;;;;;;5.80;2.07;;;;;;;-3.25;92.91;101123.09;5040507;28;20047;-78
2022/04/03 01:39:10;;;;;;;3.80;2.03;;;;;;;-3.24;92.73;101124.84;5043560;28;20087;-78
2022/04/03 01:41:41;;;;;;;3.73;2.30;;;;;;;-3.23;92.09;101117.16;5041444;28;20045;-78
2022/04/03 01:44:12;;;;;;;4.23;2.10;;;;;;;-3.21;92.41;101123.25;5023986;28;20719;-77
2022/04/03 01:46:41;;;;;;;4.43;2.77;;;;;;;-3.20;92.67;101106.06;5025748;28;20030;-77
2022/04/03 01:49:12;;;;;;;5.57;2.93;;;;;;;-3.13;92.05;101121.88;5010872;28;20040;-78
2022/04/03 01:51:48;;;;;;;4.20;2.40;;;;;;;-3.10;91.81;101115.97;5024993;28;20045;-77
2022/04/03 01:54:16;;;;;;;3.40;2.20;;;;;;;-3.10;91.69;101108.22;5012063;28;20444;-77
2022/04/03 01:56:45;;;;;;;2.93;1.90;;;;;;;-3.07;91.73;101105.75;5031831;28;20042;-77
2022/04/03 01:59:13;;;;;;;2.93;2.13;;;;;;;-3.03;91.18;101110.22;4992335;28;20041;-77
2022/04/03 02:01:44;;;;;;;5.07;2.40;;;;;;;-2.83;88.51;101113.66;5017893;28;20044;-79
2022/04/03 02:04:14;;;;;;;3.43;2.30;;;;;;;-2.90;88.74;101109.91;5025538;28;20045;-78
2022/04/03 02:06:43;;;;;;;5.47;2.63;;;;;;;-3.00;89.82;101101.75;5011706;28;20052;-78
2022/04/03 02:09:13;;;;;;;5.00;2.93;;;;;;;-3.05;90.29;101106.69;5012047;28;20123;-77
2022/04/03 02:11:43;;;;;;;3.43;2.30;;;;;;;-3.08;90.83;101106.59;5033955;28;20052;-78
2022/04/03 02:14:10;;;;;;;5.13;2.73;;;;;;;-2.94;90.26;101108.03;5009760;28;20127;-78
2022/04/03 02:16:38;;;;;;;4.37;2.40;;;;;;;-3.00;90.65;101109.50;5007569;28;20048;-78
2022/04/03 02:19:06;;;;;;;5.37;2.87;;;;;;;-3.02;90.59;101101.69;5004327;28;20044;-77
2022/04/03 02:21:35;;;;;;;4.63;2.53;;;;;;;-2.95;90.02;101098.50;5015486;28;20041;-77
2022/04/03 02:24:02;;;;;;;4.57;2.50;;;;;;;-2.98;90.47;101093.22;5022179;28;20041;-77
2022/04/03 02:26:28;;;;;;;3.30;2.00;;;;;;;-2.99;90.17;101096.63;5039627;28;20068;-77
2022/04/03 02:28:57;;;;;;;3.43;2.43;;;;;;;-2.99;90.67;101103.50;5008645;28;20044;-77
2022/04/03 02:31:23;;;;;;;5.13;2.73;;;;;;;-2.93;90.91;101091.72;5025863;28;20505;-77
2022/04/03 02:33:50;;;;;;;3.87;2.50;;;;;;;-2.93;90.84;101090.84;4991789;28;20041;-77
2022/04/03 02:36:17;;;;;;;4.13;2.40;;;;;;;-2.90;91.04;101096.13;5016702;28;20045;-78
2022/04/03 02:38:46;;;;;;;3.80;2.70;;;;;;;-2.91;91.07;101097.81;5023636;28;20047;-77
2022/04/03 02:41:16;;;;;;;4.13;2.37;;;;;;;-2.88;90.46;101097.94;4989675;28;20045;-78
2022/04/03 02:43:46;;;;;;;5.30;2.47;;;;;;;-2.84;89.21;101104.13;5012096;28;20051;-77
2022/04/03 02:46:13;;;;;;;4.90;2.37;;;;;;;-2.83;89.08;101098.13;5013825;28;20052;-78
2022/04/03 02:48:42;;;;;;;5.33;2.97;;;;;;;-2.79;89.46;101102.59;5009378;28;20071;-77
2022/04/03 02:51:09;;;;;;;4.37;2.07;;;;;;;-2.82;89.13;101102.47;5020417;28;20477;-78
2022/04/03 02:53:36;;;;;;;3.20;1.90;;;;;;;-2.75;88.87;101101.03;5027402;28;20048;-78
2022/04/03 02:56:03;;;;;;;4.20;2.70;;;;;;;-2.72;88.44;101108.91;5013316;28;20049;-77
2022/04/03 02:58:29;;;;;;;4.33;2.30;;;;;;;-2.80;88.43;101100.84;5049258;28;20045;-78
2022/04/03 03:00:56;;;;;;;5.00;3.03;;;;;;;-2.81;89.02;101105.94;5031669;28;20041;-78
2022/04/03 03:03:23;;;;;;;4.53;2.67;;;;;;;-2.76;88.57;101096.69;5031095;28;20044;-76
2022/04/03 03:05:50;;;;;;;4.03;2.30;;;;;;;-2.62;88.24;101100.69;5013673;28;20041;-78
2022/04/03 03:08:18;;;;;;;2.97;2.40;;;;;;;-2.75;88.87;101093.28;5015926;28;20107;-78
2022/04/03 03:10:45;;;;;;;3.47;2.30;;;;;;;-2.76;89.32;101099.28;5016637;28;20399;-77
2022/04/03 03:13:12;;;;;;;3.90;1.93;;;;;;;-2.75;90.06;101093.28;5047317;28;20041;-77
2022/04/03 03:15:39;;;;;;;4.10;2.13;;;;;;;-2.76;90.01;101097.56;5034090;28;20049;-75
2022/04/03 03:18:06;;;;;;;3.67;2.20;;;;;;;-2.76;90.21;101091.50;5048153;28;20123;-77
2022/04/03 03:20:33;;;;;;;5.67;2.70;;;;;;;-2.73;89.70;101086.44;5031806;28;20041;-78
2022/04/03 03:23:00;;;;;;;3.67;2.40;;;;;;;-2.67;89.27;101084.13;5017122;28;20047;-77
2022/04/03 03:25:28;;;;;;;4.67;2.90;;;;;;;-2.62;88.64;101091.22;5033191;28;20061;-78
2022/04/03 03:27:55;;;;;;;3.10;2.30;;;;;;;-2.64;88.37;101091.97;5044144;28;20037;-78
2022/04/03 03:30:22;;;;;;;4.67;2.63;;;;;;;-2.63;88.88;101092.03;5027446;28;20040;-78
2022/04/03 03:32:48;;;;;;;4.80;2.60;;;;;;;-2.55;88.41;101092.34;5027801;28;20056;-77
2022/04/03 03:35:15;;;;;;;4.20;2.43;;;;;;;-2.57;88.80;101089.69;5030506;28;20060;-78
2022/04/03 03:37:42;;;;;;;4.00;2.40;;;;;;;-2.63;89.62;101089.44;5015092;28;20391;-76
2022/04/03 03:40:11;;;;;;;3.70;2.10;;;;;;;-2.69;90.17;101091.81;5030907;28;20040;-78
2022/04/03 03:42:40;;;;;;;7.37;2.60;;;;;;;-2.70;90.58;101099.50;5001753;28;20037;-77
2022/04/03 03:45:08;;;;;;;4.53;2.33;;;;;;;-2.69;90.18;101086.66;5013943;28;20057;-77
2022/04/03 03:47:35;;;;;;;4.10;2.70;;;;;;;-2.65;90.11;101088.53;5031115;28;20067;-77
2022/04/03 03:50:02;;;;;;;6.40;2.93;;;;;;;-2.63;89.56;101096.34;5014103;28;20051;-78
2022/04/03 03:52:29;;;;;;;3.93;2.13;;;;;;;-2.67;89.50;101099.63;5016745;28;20063;-78
2022/04/03 03:54:56;;;;;;;4.87;2.17;;;;;;;-2.70;89.82;101102.06;5016395;28;20037;-77
2022/04/03 03:57:23;;;;;;;4.43;2.23;;;;;;;-2.68;89.55;101095.28;5028063;28;20048;-78
2022/04/03 03:59:50;;;;;;;3.63;2.47;;;;;;;-2.62;89.10;101093.81;5032223;28;20045;-78
2022/04/03 04:02:17;;;;;;;2.90;2.03;;;;;;;-2.68;89.80;101098.75;5046472;28;20094;-76
2022/04/03 04:04:44;;;;;;;2.73;1.80;;;;;;;-2.66;89.77;101089.34;5044788;28;20135;-78
2022/04/03 04:07:10;;;;;;;2.93;2.07;;;;;;;-2.70;90.05;101092.59;5030804;28;20033;-78
2022/04/03 04:09:39;;;;;;;3.87;2.27;;;;;;;-2.66;89.07;101093.63;5046206;28;20049;-77
2022/04/03 04:12:06;;;;;;;3.20;2.40;;;;;;;-2.68;89.74;101096.16;5042908;28;20049;-77
2022/04/03 04:14:33;;;;;;;5.37;2.87;;;;;;;-2.66;89.70;101091.94;5032259;28;20520;-77
2022/04/03 04:16:59;;;;;;;5.27;2.77;;;;;;;-2.60;89.83;101096.47;5031668;28;20497;-78
2022/04/03 04:19:26;;;;;;;4.73;2.60;;;;;;;-2.63;89.41;101099.78;5029544;28;20063;-78
2022/04/03 04:21:53;;;;;;;6.17;2.87;;;;;;;-2.60;89.68;101099.06;5031442;28;20045;-77
2022/04/03 04:24:20;;;;;;;3.63;2.13;;;;;;;-2.65;89.32;101090.22;5012954;28;20045;-79
2022/04/03 04:26:46;;;;;;;4.53;2.37;;;;;;;-2.66;89.37;101094.50;5041660;28;20033;-79
2022/04/03 04:29:13;;;;;;;7.90;2.50;;;;;;;-2.70;90.03;101107.25;5041892;28;20091;-77
2022/04/03 04:31:40;;;;;;;4.50;2.60;;;;;;;-2.69;88.41;101107.34;5030893;28;20036;-77
2022/04/03 04:34:07;;;;;;;3.50;2.40;;;;;;;-2.69;88.77;101104.75;5014199;28;20053;-77
2022/04/03 04:36:34;;;;;;;5.43;2.30;;;;;;;-2.70;88.57;101104.66;5024712;28;20037;-76
2022/04/03 04:39:00;;;;;;;4.73;2.27;;;;;;;-2.68;88.90;101108.22;5027870;28;20045;-79
2022/04/03 04:41:27;;;;;;;4.47;2.20;;;;;;;-2.71;89.06;101108.94;5033730;28;20038;-76
2022/04/03 04:43:54;;;;;;;4.00;2.20;;;;;;;-2.79;89.12;101105.19;5037368;28;20045;-77
2022/04/03 04:46:21;;;;;;;3.40;2.20;;;;;;;-2.84;89.51;101111.88;5031176;28;20041;-78
2022/04/03 04:48:49;;;;;;;4.53;2.57;;;;;;;-2.80;88.86;101115.47;5014288;28;20072;-75
2022/04/03 04:51:16;;;;;;;4.50;2.30;;;;;;;-2.84;88.96;101115.34;5030366;28;20124;-78
2022/04/03 04:53:43;;;;;;;4.80;2.50;;;;;;;-2.92;90.01;101111.56;5042740;28;20079;-78
2022/04/03 04:56:12;;;;;;;6.20;2.40;;;;;;;-2.91;89.62;101112.44;5014493;28;20076;-78
2022/04/03 04:58:40;;;;;;;6.37;2.30;;;;;;;-2.85;89.01;101117.88;5017810;28;20048;-78
2022/04/03 05:01:07;;;;;;;4.10;2.60;;;;;;;-2.94;89.91;101112.34;5026918;28;20489;-77
2022/04/03 05:03:33;;;;;;;4.03;2.40;;;;;;;-2.93;89.47;101114.97;5014009;28;20072;-79
2022/04/03 05:06:00;;;;;;;4.03;2.60;;;;;;;-2.99;90.18;101121.59;5048679;28;20102;-76
2022/04/03 05:08:28;;;;;;;2.80;2.37;;;;;;;-2.97;89.82;101122.53;5027384;28;20146;-78
2022/04/03 05:10:55;;;;;;;3.43;2.20;;;;;;;-2.87;89.65;101128.13;5028545;28;20033;-76
2022/04/03 05:13:25;;;;;;;3.00;2.40;;;;;;;-2.90;89.31;101117.69;5005894;28;20045;-74
2022/04/03 05:15:52;;;;;;;3.90;2.60;;;;;;;-2.97;89.25;101120.81;5015142;28;20037;-78
2022/04/03 05:18:20;;;;;;;3.97;2.10;;;;;;;-3.00;89.62;101119.84;5009279;28;20048;-77
2022/04/03 05:20:49;;;;;;;4.27;2.50;;;;;;;-3.00;89.82;101123.28;5015221;28;20037;-77
2022/04/03 05:23:16;;;;;;;5.70;2.70;;;;;;;-3.02;89.62;101127.53;5030297;28;20041;-78
2022/04/03 05:25:42;;;;;;;3.13;1.93;;;;;;;-3.07;89.78;101121.28;4999464;28;20049;-78
2022/04/03 05:28:09;;;;;;;8.00;4.07;;;;;;;-3.08;89.86;101131.56;4995970;28;20111;-77
2022/04/03 05:30:36;;;;;;;8.23;4.13;;;;;;;-3.16;90.03;101129.53;5026561;28;20873;-78
2022/04/03 05:33:02;;;;;;;5.40;4.40;;;;;;;-3.20;90.63;101126.72;4995895;28;20053;-78
2022/04/03 05:35:29;;;;;;;7.07;3.87;;;;;;;-3.13;90.18;101129.63;5015576;28;20098;-77
2022/04/03 05:37:56;;;;;;;6.53;3.17;;;;;;;-3.20;89.54;101130.19;5009198;28;20498;-78
2022/04/03 05:40:22;;;;;;;6.30;3.13;;;;;;;-3.21;90.37;101132.72;5012582;28;20384;-78
2022/04/03 05:42:49;;;;;;;8.20;4.07;;;;;;;-3.26;90.35;101127.38;5030639;28;20041;-77
2022/04/03 05:45:16;;;;;;;8.40;4.43;;;;;;;-3.29;90.70;101131.50;5042755;28;20051;-77
2022/04/03 05:47:43;;;;;;;6.10;3.13;;;;;;;-3.32;90.99;101121.94;5008984;28;20041;-77
2022/04/03 05:50:11;;;;;;;5.77;3.33;;;;;;;-3.32;91.50;101127.09;4993969;28;20125;-76
2022/04/03 05:52:43;;;;;;;7.97;3.80;;;;;;;-3.31;92.19;101120.22;5043710;28;20128;-76
2022/04/03 05:55:10;;;;;;;6.73;2.90;;;;;;;-3.28;92.44;101125.53;5008945;28;20044;-76
2022/04/03 05:57:37;;;;;;;6.63;3.20;;;;;;;-3.25;91.58;101121.38;5010900;28;20379;-76
2022/04/03 06:00:06;;;;;;;5.37;2.67;;;;;;;-3.28;92.45;101129.03;5009350;28;20517;-76
2022/04/03 06:02:55;;;;;;;6.80;3.10;;;;;;;-3.23;91.13;101127.50;5027991;28;20037;-76
2022/04/03 06:05:23;;;;;;;6.40;3.20;;;;;;;-3.23;91.78;101130.06;5008993;28;20052;-78
2022/04/03 06:07:54;;;;;;;5.10;2.97;;;;;;;-3.26;92.21;101139.41;5043304;28;20044;-76
2022/04/03 06:10:22;;;;;;;4.73;2.83;;;;;;;-3.19;91.60;101139.75;5031083;28;20040;-78
2022/04/03 06:13:00;;;;;;;4.60;2.83;;;;;;;-3.20;91.88;101139.66;5012629;28;20037;-79
2022/04/03 06:15:34;;;;;;;5.63;3.47;;;;;;;-3.05;92.06;101132.53;5038236;28;21722;-78
2022/04/03 06:18:02;;;;;;;10.98;5.45;;;;;;;-3.04;93.00;101138.59;4998472;28;20099;-78
2022/04/03 06:20:29;;;;;;;12.73;5.53;;;;;;;-3.12;93.38;101141.75;5016811;28;20049;-77
2022/04/03 06:22:56;;;;;;;12.90;6.23;;;;;;;-3.04;94.00;101142.06;5030957;28;20051;-79
2022/04/03 06:25:23;;;;;;;12.37;5.90;;;;;;;-2.87;93.63;101138.47;5017221;28;20623;-79
2022/04/03 06:27:51;;;;;;;6.47;4.17;;;;;;;-2.11;91.72;101137.16;5017859;28;20037;-78
2022/04/03 06:30:18;;;;;;;9.33;3.73;;;;;;;-1.48;87.25;101127.44;5030582;28;20060;-79
2022/04/03 06:32:45;;;;;;;11.63;5.60;;;;;;;-0.88;83.07;101127.75;5024119;28;21700;-79
2022/04/03 06:35:12;;;;;;;7.77;4.50;;;;;;;-0.71;82.87;101128.31;5016117;28;20049;-79
2022/04/03 06:37:38;;;;;;;5.57;2.87;;;;;;;-0.62;81.39;101128.59;5029648;28;20033;-79
2022/04/03 06:40:06;;;;;;;3.33;2.60;;;;;;;-0.35;81.10;101126.00;5023897;28;20045;-76
2022/04/03 06:42:33;;;;;;;4.23;2.57;;;;;;;0.66;77.12;101124.63;5046593;28;20048;-78
2022/04/03 06:45:00;;;;;;;4.87;1.87;;;;;;;1.80;73.16;101123.97;5029112;28;20410;-80
2022/04/03 06:47:28;;;;;;;3.53;2.00;;;;;;;2.75;67.10;101111.16;5027812;28;20140;-77
2022/04/03 06:49:55;;;;;;;4.47;2.87;;;;;;;3.70;63.33;101115.38;5034531;28;20116;-81
2022/04/03 06:52:21;;;;;;;5.50;2.63;;;;;;;4.44;61.51;101110.22;5017619;28;20437;-78
2022/04/03 06:54:52;;;;;;;2.40;1.90;;;;;;;5.23;57.01;101104.91;5050013;28;20095;-80
2022/04/03 06:57:19;;;;;;;3.90;2.17;;;;;;;5.85;54.48;101109.72;5021610;28;20099;-80
2022/04/03 06:59:46;;;;;;;3.07;1.90;;;;;;;6.17;51.39;101114.31;5035063;28;20055;-78
2022/04/03 07:02:12;;;;;;;3.77;2.37;;;;;;;6.44;49.51;101113.53;5026752;28;20478;-81
2022/04/03 07:04:39;;;;;;;2.97;1.67;;;;;;;6.83;49.16;101111.91;5013573;28;20642;-77
2022/04/03 07:07:06;;;;;;;2.80;2.00;;;;;;;7.01;47.93;101107.56;5032214;28;20047;-76
2022/04/03 07:09:38;;;;;;;3.00;1.40;;;;;;;7.00;48.16;101095.31;5030558;28;20040;-77
2022/04/03 07:12:04;;;;;;;2.83;2.22;;;;;;;7.14;46.48;101097.91;5029167;28;20068;-81
2022/04/03 07:14:31;;;;;;;4.03;1.52;;;;;;;5.99;44.57;101099.34;5007911;28;20537;-80
2022/04/03 07:16:58;;;;;;;2.53;1.60;;;;;;;6.65;47.28;101107.50;5030248;28;20044;-80
2022/04/03 07:19:25;;;;;;;2.87;1.50;;;;;;;6.19;45.41;101107.31;5014949;28;20456;-80
2022/04/03 07:21:51;;;;;;;10.10;4.13;;;;;;;5.84;46.39;101115.84;5003145;28;20414;-79
2022/04/03 07:24:18;;;;;;;165.77;60.70;;;;;;;5.53;47.95;101117.38;5009063;28;20042;-77
2022/04/03 07:26:45;;;;;;;11.80;4.17;;;;;;;5.96;48.19;101120.28;5018646;28;20041;-79
2022/04/03 07:29:12;;;;;;;5.00;2.83;;;;;;;6.24;48.93;101108.22;5034310;28;20045;-78
2022/04/03 07:31:38;;;;;;;20.47;9.70;;;;;;;6.14;46.83;101111.69;5046462;28;20029;-77
2022/04/03 07:34:05;;;;;;;3.87;2.10;;;;;;;5.80;46.83;101118.41;5034960;28;20452;-78
2022/04/03 07:36:32;;;;;;;2.90;1.43;;;;;;;5.60;47.89;101121.78;5025893;28;20058;-79
2022/04/03 07:38:58;;;;;;;3.53;1.50;;;;;;;5.05;45.78;101120.47;5054024;28;20076;-79
2022/04/03 07:41:25;;;;;;;2.50;1.40;;;;;;;4.99;47.12;101123.03;5035699;28;20515;-79
2022/04/03 07:43:52;;;;;;;2.00;1.47;;;;;;;4.87;47.21;101115.03;5013898;28;20099;-79
2022/04/03 07:46:18;;;;;;;3.60;2.07;;;;;;;4.87;48.45;101115.91;5020454;28;20060;-78
2022/04/03 07:48:45;;;;;;;12.60;5.23;;;;;;;5.08;49.65;101118.75;5034044;28;20110;-78
2022/04/03 07:51:12;;;;;;;3.97;2.10;;;;;;;4.82;45.55;101117.63;5019436;28;20076;-78
2022/04/03 07:53:39;;;;;;;3.73;1.70;;;;;;;4.65;47.52;101124.41;5026952;28;20037;-79
2022/04/03 07:56:06;;;;;;;12.90;5.53;;;;;;;4.88;49.43;101116.81;5022907;28;20045;-78
2022/04/03 07:58:33;;;;;;;2.30;1.27;;;;;;;4.98;47.68;101118.66;5017333;28;20071;-79
2022/04/03 08:01:01;;;;;;;5.03;2.13;;;;;;;4.93;48.49;101115.97;5036486;28;20037;-77
2022/04/03 08:03:28;;;;;;;4.87;2.27;;;;;;;4.89;48.85;101114.22;5030052;28;20045;-77
2022/04/03 08:05:55;;;;;;;4.23;2.23;;;;;;;4.88;48.66;101122.06;4999469;28;20041;-79
2022/04/03 08:08:22;;;;;;;3.73;1.63;;;;;;;4.79;49.08;101118.47;5033472;28;20045;-77
2022/04/03 08:10:48;;;;;;;3.37;1.60;;;;;;;4.82;49.34;101119.38;5021662;28;20036;-79
2022/04/03 08:13:15;;;;;;;4.17;1.50;;;;;;;4.82;49.71;101119.38;5033054;28;20498;-79
2022/04/03 08:15:42;;;;;;;17.47;6.47;;;;;;;4.94;49.89;101119.47;5019405;28;20044;-77
2022/04/03 08:18:09;;;;;;;6.10;2.70;;;;;;;4.83;49.15;101116.75;5018208;28;20052;-79
2022/04/03 08:20:36;;;;;;;3.93;2.20;;;;;;;4.76;47.58;101117.56;5013304;28;20111;-78
2022/04/03 08:23:03;;;;;;;5.30;1.70;;;;;;;4.81;48.27;101115.88;5018491;28;20049;-78
2022/04/03 08:25:31;;;;;;;1.87;1.57;;;;;;;4.80;48.10;101111.50;5051299;28;20064;-78
2022/04/03 08:28:00;;;;;;;3.03;1.67;;;;;;;4.56;48.89;101122.59;5006870;28;20054;-79
2022/04/03 08:30:32;;;;;;;6.30;2.23;;;;;;;4.65;49.77;101122.69;5038491;28;20060;-79
2022/04/03 08:32:59;;;;;;;2.83;1.40;;;;;;;4.48;49.80;101117.25;5014913;28;20052;-79
2022/04/03 08:35:27;;;;;;;4.43;2.23;;;;;;;4.66;48.93;101110.47;5006551;28;20049;-79
2022/04/03 08:37:55;;;;;;;2.20;1.43;;;;;;;5.03;49.65;101109.09;5039102;28;20044;-80
2022/04/03 08:40:23;;;;;;;3.03;1.60;;;;;;;5.04;47.08;101113.47;5049289;28;20120;-78
2022/04/03 08:42:52;;;;;;;2.80;1.67;;;;;;;5.15;47.18;101105.72;5028803;28;20047;-80
2022/04/03 08:45:19;;;;;;;4.27;1.70;;;;;;;5.44;46.64;101109.44;5014228;28;20041;-78
2022/04/03 08:47:52;;;;;;;2.20;1.50;;;;;;;5.56;45.72;101103.44;5013454;28;20123;-79
2022/04/03 08:50:21;;;;;;;5.30;2.23;;;;;;;5.52;45.74;101112.13;5028526;28;20045;-77
2022/04/03 08:52:50;;;;;;;8.40;3.83;;;;;;;5.56;46.74;101114.78;5018128;28;20052;-80
2022/04/03 08:55:18;;;;;;;3.43;1.50;;;;;;;5.41;44.32;101101.56;5014956;28;20041;-79
2022/04/03 08:57:50;;;;;;;2.87;1.60;;;;;;;5.48;44.73;101107.75;5016918;28;20044;-80
2022/04/03 09:00:17;;;;;;;4.13;1.80;;;;;;;5.19;44.44;101110.09;5029567;28;20044;-81
2022/04/03 09:02:47;;;;;;;3.43;1.73;;;;;;;5.34;44.67;101107.63;5029267;28;20402;-79
2022/04/03 09:05:14;;;;;;;14.47;6.57;;;;;;;5.09;44.03;101114.38;5008424;28;20051;-78
2022/04/03 09:07:41;;;;;;;47.20;17.77;;;;;;;5.02;44.55;101104.72;5032566;28;20124;-78
2022/04/03 09:10:09;;;;;;;3.87;1.80;;;;;;;5.40;44.29;101105.06;5012046;28;20048;-78
2022/04/03 09:12:44;;;;;;;19.33;7.37;;;;;;;5.45;44.98;101105.94;5011348;28;20032;-79
2022/04/03 09:15:20;;;;;;;2.83;1.83;;;;;;;5.71;44.70;101098.25;5033660;28;20052;-79
2022/04/03 09:17:49;;;;;;;18.23;6.43;;;;;;;6.01;43.68;101095.00;5037444;28;20053;-79
2022/04/03 09:20:26;;;;;;;12.17;5.80;;;;;;;6.17;42.11;101088.06;5033268;28;20069;-80
2022/04/03 09:22:54;;;;;;;7.47;3.50;;;;;;;6.28;41.61;101088.97;5050785;28;20087;-80
2022/04/03 09:25:47;;;;;;;3.00;1.87;;;;;;;6.59;40.53;101086.47;5015985;28;20045;-80
2022/04/03 09:28:14;;;;;;;41.30;23.40;;;;;;;6.93;41.72;101072.53;5011638;23;20068;-76
2022/04/03 09:30:43;;;;;;;7.77;4.60;;;;;;;7.14;41.95;101079.53;4986348;28;20121;-76
2022/04/03 09:33:13;;;;;;;4.33;3.17;;;;;;;7.43;40.34;101070.78;4992450;28;20045;-76
2022/04/03 09:36:02;;;;;;;8.40;7.43;;;;;;;7.34;39.15;101071.66;5010091;28;20037;-76
2022/04/03 09:38:30;;;;;;;3.60;2.43;;;;;;;6.77;39.97;101071.63;4991465;28;20056;-75
2022/04/03 09:40:59;;;;;;;3.77;3.27;;;;;;;6.69;40.54;101069.84;5009237;28;20116;-76
2022/04/03 09:43:34;;;;;;;2.60;2.20;;;;;;;6.69;41.32;101065.47;4996922;28;20049;-76
2022/04/03 09:46:06;;;;;;;3.23;1.93;;;;;;;6.60;41.28;101064.59;4990812;28;20037;-75
2022/04/03 09:48:39;;;;;;;6.30;3.67;;;;;;;6.56;40.49;101061.09;5023585;28;20116;-74
2022/04/03 09:51:13;;;;;;;3.27;2.33;;;;;;;6.53;40.16;101058.44;4991795;28;20041;-76
2022/04/03 09:53:56;;;;;;;3.13;1.92;;;;;;;6.50;39.78;101050.56;4999998;28;20042;-77
2022/04/03 09:56:31;;;;;;;3.10;1.97;;;;;;;6.47;39.46;101061.03;5012256;28;20099;-78
2022/04/03 09:59:01;;;;;;;4.17;2.27;;;;;;;6.44;39.92;101050.53;4993875;28;20042;-77
2022/04/03 10:01:35;;;;;;;3.30;2.10;;;;;;;5.98;39.57;101060.88;4994021;28;20410;-77
2022/04/03 10:04:04;;;;;;;3.55;3.03;;;;;;;6.05;39.45;101053.91;5005143;28;20037;-76
2022/04/03 10:06:31;;;;;;;3.67;2.80;;;;;;;5.73;40.06;101051.13;5010215;28;20520;-77
2022/04/03 10:08:58;;;;;;;4.67;3.00;;;;;;;5.90;40.17;101054.69;4997938;28;20057;-76
2022/04/03 10:11:26;;;;;;;5.43;3.53;;;;;;;6.06;39.17;101053.06;4996882;28;20049;-77
2022/04/03 10:13:53;;;;;;;53.97;45.37;;;;;;;5.36;39.13;101043.88;4993988;28;20050;-76
2022/04/03 10:16:20;;;;;;;10.83;9.67;;;;;;;5.57;40.77;101045.78;4993825;28;20049;-76
2022/04/03 10:18:48;;;;;;;9.00;7.80;;;;;;;5.69;39.51;101046.69;4990265;28;20099;-75
2022/04/03 10:21:23;;;;;;;4.40;2.73;;;;;;;6.03;39.69;101042.53;5012408;28;20474;-76
2022/04/03 10:23:52;;;;;;;6.13;4.40;;;;;;;6.86;40.88;101033.13;4994344;28;20053;-77
2022/04/03 10:26:20;;;;;;;3.07;2.23;;;;;;;6.88;37.59;101032.22;5026379;28;20099;-77
2022/04/03 10:28:54;;;;;;;2.77;1.97;;;;;;;7.38;37.54;101017.31;5006550;28;20046;-77
2022/04/03 10:31:22;;;;;;;3.73;2.50;;;;;;;7.51;36.97;101025.19;4971730;28;20124;-77
2022/04/03 10:33:50;;;;;;;3.53;2.50;;;;;;;7.35;36.23;101010.31;4991645;28;20103;-76
2022/04/03 10:36:26;;;;;;;2.97;2.30;;;;;;;7.12;36.95;101017.34;5012623;28;20030;-77
2022/04/03 10:39:00;;;;;;;3.00;2.20;;;;;;;7.01;38.36;101012.97;5003895;28;20049;-77
2022/04/03 10:41:31;;;;;;;3.00;2.40;;;;;;;7.10;38.85;101013.84;4995099;28;20414;-77
2022/04/03 10:44:21;;;;;;;9.33;6.23;;;;;;;7.19;38.01;101017.34;5011441;28;20047;-77
2022/04/03 10:47:05;;;;;;;3.73;2.10;;;;;;;7.52;38.48;101008.53;5011425;28;20052;-76
2022/04/03 10:49:40;;;;;;;2.47;1.80;;;;;;;8.10;37.26;100995.16;5001399;28;20105;-76
2022/04/03 10:52:10;;;;;;;4.17;2.30;;;;;;;8.07;36.05;101004.81;5026090;28;20048;-76
2022/04/03 10:54:42;;;;;;;3.63;2.03;;;;;;;8.13;35.44;100999.53;4992677;28;20041;-76
2022/04/03 10:57:33;;;;;;;4.13;2.07;;;;;;;7.56;37.31;100996.25;4981033;28;20034;-77
2022/04/03 11:00:09;;;;;;;2.90;2.40;;;;;;;7.55;37.56;101000.63;4987898;28;20049;-76
2022/04/03 11:02:36;;;;;;;6.87;3.30;;;;;;;7.53;36.78;100996.25;5010817;28;20041;-76
2022/04/03 11:05:21;;;;;;;3.37;2.30;;;;;;;7.53;36.50;100989.25;5006854;28;20083;-76
2022/04/03 11:08:00;;;;;;;3.20;2.30;;;;;;;7.60;37.88;100982.22;5010332;28;20049;-77
2022/04/03 11:10:53;;;;;;;3.33;2.07;;;;;;;7.65;35.25;100980.47;5011513;28;20044;-76
2022/04/03 11:13:25;;;;;;;3.43;2.20;;;;;;;7.95;35.70;100970.69;5012549;28;20518;-77
2022/04/03 11:16:09;;;;;;;4.07;1.80;;;;;;;8.21;35.48;100981.94;5011628;28;20453;-76
2022/04/03 11:18:42;;;;;;;3.43;2.10;;;;;;;7.57;34.30;100977.84;5029328;28;20045;-76
2022/04/03 11:21:25;;;;;;;3.27;2.37;;;;;;;7.85;35.79;100969.84;5030509;28;20041;-77
2022/04/03 11:23:55;;;;;;;2.70;2.07;;;;;;;8.36;35.81;100960.84;5005514;28;20042;-77
2022/04/03 11:26:23;;;;;;;4.70;2.23;;;;;;;8.82;35.26;100970.13;5007455;28;20076;-77
2022/04/03 11:28:58;;;;;;;3.53;2.20;;;;;;;9.23;35.04;100946.03;4993038;28;20038;-77
2022/04/03 11:31:25;;;;;;;42.25;17.83;;;;;;;9.59;34.23;100957.97;5010704;28;20037;-77
2022/04/03 11:34:06;;;;;;;3.92;2.15;;;;;;;9.40;32.51;100951.13;4994440;28;20124;-76
2022/04/03 11:37:07;;;;;;;3.90;2.60;;;;;;;9.56;33.39;100944.78;4992476;28;20045;-76
2022/04/03 11:39:44;;;;;;;7.05;3.63;;;;;;;9.66;32.59;100937.63;4996120;28;20033;-76
2022/04/03 11:42:11;;;;;;;11.77;5.38;;;;;;;9.47;31.94;100942.25;4993500;28;20668;-76
2022/04/03 11:44:41;;;;;;;25.52;13.60;;;;;;;8.70;33.24;100935.13;4974530;28;20461;-76
2022/04/03 11:47:19;;;;;;;2.72;2.03;;;;;;;8.75;33.79;100943.00;4996955;28;20045;-76
2022/04/03 11:49:45;;;;;;;3.90;3.27;;;;;;;8.60;34.30;100940.47;5007790;28;20049;-75
2022/04/03 11:52:12;;;;;;;7.30;6.70;;;;;;;8.71;34.72;100938.63;4992301;28;20040;-75
2022/04/03 11:54:39;;;;;;;3.22;2.03;;;;;;;9.10;34.37;100920.72;4984605;28;20045;-77
2022/04/03 11:57:07;;;;;;;3.70;2.80;;;;;;;9.19;34.88;100929.38;4974216;28;20556;-75
2022/04/03 11:59:36;;;;;;;3.47;1.75;;;;;;;9.58;33.51;100921.91;4986613;28;20125;-75
2022/04/03 12:02:14;;;;;;;13.85;4.10;;;;;;;9.56;33.47;100916.66;4987378;28;20068;-75